sensor_id;sensor_type;location;lat;lon;timestamp;P1;P2;P0
56360;PMS7003;42611;51.132;13.588;2024-02-15T00:02:15;4.3;3.8;
56360;PMS7003;42611;51.132;13.588;2024-02-15T00:12:03;3.3;2.6;
56360;PMS7003;42611;51.132;13.588;2024-02-15T00:17:01;3.1;2.5;
56360;PMS7003;42611;51.132;13.588;2024-02-15T00:22:01;3.2;2.4;
56360;PMS7003;42611;51.132;13.588;2024-02-15T00:27:02;2.4;2.0;
56360;PMS7003;42611;51.132;13.588;2024-02-15T00:52:04;2.6;2.6;
56360;PMS7003;42611;51.132;13.588;2024-02-15T01:07:01;2.2;2.2;
56360;PMS7003;42611;51.132;13.588;2024-02-15T01:12:04;1.7;1.7;
56360;PMS7003;42611;51.132;13.588;2024-02-15T01:32:13;1.9;1.9;
56360;PMS7003;42611;51.132;13.588;2024-02-15T03:52:01;0.4;0.2;
56360;PMS7003;42611;51.132;13.588;2024-02-15T04:17:24;0.5;0.4;
56360;PMS7003;42611;51.132;13.588;2024-02-15T04:32:02;0.5;0.3;
56360;PMS7003;42611;51.132;13.588;2024-02-15T05:02:11;0.8;0.4;
56360;PMS7003;42611;51.132;13.588;2024-02-15T05:17:06;1.0;0.4;
56360;PMS7003;42611;51.132;13.588;2024-02-15T06:07:02;1.0;0.1;
56360;PMS7003;42611;51.132;13.588;2024-02-15T06:17:01;1.2;0.5;
56360;PMS7003;42611;51.132;13.588;2024-02-15T06:27:15;1.5;1.0;
56360;PMS7003;42611;51.132;13.588;2024-02-15T06:42:02;1.4;1.0;
56360;PMS7003;42611;51.132;13.588;2024-02-15T07:22:02;2.4;2.0;
56360;PMS7003;42611;51.132;13.588;2024-02-15T07:27:01;2.5;2.0;
56360;PMS7003;42611;51.132;13.588;2024-02-15T07:32:01;2.6;2.1;
56360;PMS7003;42611;51.132;13.588;2024-02-15T07:47:19;2.7;2.4;
56360;PMS7003;42611;51.132;13.588;2024-02-15T08:17:12;1.9;1.9;
56360;PMS7003;42611;51.132;13.588;2024-02-15T08:22:19;3.1;2.8;
56360;PMS7003;42611;51.132;13.588;2024-02-15T08:27:01;3.5;3.0;
56360;PMS7003;42611;51.132;13.588;2024-02-15T08:37:19;4.5;3.7;
56360;PMS7003;42611;51.132;13.588;2024-02-15T08:47:01;4.2;3.5;
56360;PMS7003;42611;51.132;13.588;2024-02-15T08:52:01;4.5;4.0;
56360;PMS7003;42611;51.132;13.588;2024-02-15T09:02:01;5.1;4.6;
56360;PMS7003;42611;51.132;13.588;2024-02-15T09:22:18;5.7;5.1;
56360;PMS7003;42611;51.132;13.588;2024-02-15T09:32:01;5.2;5.1;
56360;PMS7003;42611;51.132;13.588;2024-02-15T09:47:03;3.0;3.0;
56360;PMS7003;42611;51.132;13.588;2024-02-15T09:52:03;2.6;2.6;
56360;PMS7003;42611;51.132;13.588;2024-02-15T09:57:07;2.0;2.0;
56360;PMS7003;42611;51.132;13.588;2024-02-15T10:17:07;2.6;2.2;
56360;PMS7003;42611;51.132;13.588;2024-02-15T10:37:27;3.1;2.6;
56360;PMS7003;42611;51.132;13.588;2024-02-15T10:52:01;2.6;2.6;
56360;PMS7003;42611;51.132;13.588;2024-02-15T11:02:01;2.5;2.5;
56360;PMS7003;42611;51.132;13.588;2024-02-15T11:36:11;3.0;3.0;
56360;PMS7003;42611;51.132;13.588;2024-02-15T11:46:14;3.0;3.0;
56360;PMS7003;42611;51.132;13.588;2024-02-15T11:52:08;2.8;2.8;
56360;PMS7003;42611;51.132;13.588;2024-02-15T11:57:07;2.4;2.4;
56360;PMS7003;42611;51.132;13.588;2024-02-15T12:14:06;2.1;1.6;
56360;PMS7003;42611;51.132;13.588;2024-02-15T12:35:16;2.2;2.0;
56360;PMS7003;42611;51.132;13.588;2024-02-15T12:51:19;2.7;2.1;
56360;PMS7003;42611;51.132;13.588;2024-02-15T13:02:03;2.7;1.8;
56360;PMS7003;42611;51.132;13.588;2024-02-15T13:12:08;1.7;1.2;
56360;PMS7003;42611;51.132;13.588;2024-02-15T13:17:15;1.1;0.9;
56360;PMS7003;42611;51.132;13.588;2024-02-15T13:38:07;0.8;0.8;
56360;PMS7003;42611;51.132;13.588;2024-02-15T13:43:08;0.9;0.9;
56360;PMS7003;42611;51.132;13.588;2024-02-15T14:23:01;0.6;0.4;
56360;PMS7003;42611;51.132;13.588;2024-02-15T14:34:07;0.4;0.4;
56360;PMS7003;42611;51.132;13.588;2024-02-15T14:39:02;0.6;0.6;
56360;PMS7003;42611;51.132;13.588;2024-02-15T14:44:06;0.8;0.6;
56360;PMS7003;42611;51.132;13.588;2024-02-15T14:54:07;0.9;0.6;
56360;PMS7003;42611;51.132;13.588;2024-02-15T14:59:01;1.1;0.8;
56360;PMS7003;42611;51.132;13.588;2024-02-15T15:04:01;1.3;0.7;
56360;PMS7003;42611;51.132;13.588;2024-02-15T15:09:01;1.1;0.8;
56360;PMS7003;42611;51.132;13.588;2024-02-15T15:14:02;1.3;1.0;
56360;PMS7003;42611;51.132;13.588;2024-02-15T15:19:02;1.0;0.8;
56360;PMS7003;42611;51.132;13.588;2024-02-15T15:29:07;0.6;0.6;
56360;PMS7003;42611;51.132;13.588;2024-02-15T15:34:07;0.4;0.4;
56360;PMS7003;42611;51.132;13.588;2024-02-15T15:39:01;0.2;0.2;
56360;PMS7003;42611;51.132;13.588;2024-02-15T15:44:03;0.6;0.4;
56360;PMS7003;42611;51.132;13.588;2024-02-15T15:59:02;0.8;0.6;
56360;PMS7003;42611;51.132;13.588;2024-02-15T16:04:01;3.2;2.4;
56360;PMS7003;42611;51.132;13.588;2024-02-15T16:09:02;4.6;3.8;
56360;PMS7003;42611;51.132;13.588;2024-02-15T16:14:09;7.2;6.2;
56360;PMS7003;42611;51.132;13.588;2024-02-15T16:19:01;8.9;7.9;
56360;PMS7003;42611;51.132;13.588;2024-02-15T16:24:01;10.0;8.8;
56360;PMS7003;42611;51.132;13.588;2024-02-15T16:29:01;8.6;8.0;
56360;PMS7003;42611;51.132;13.588;2024-02-15T16:34:02;9.3;8.4;
56360;PMS7003;42611;51.132;13.588;2024-02-15T16:39:06;10.7;9.9;
56360;PMS7003;42611;51.132;13.588;2024-02-15T16:44:01;13.7;12.2;
56360;PMS7003;42611;51.132;13.588;2024-02-15T16:49:02;15.9;14.4;
56360;PMS7003;42611;51.132;13.588;2024-02-15T16:54:06;19.4;17.5;
56360;PMS7003;42611;51.132;13.588;2024-02-15T16:59:06;21.3;20.0;
56360;PMS7003;42611;51.132;13.588;2024-02-15T17:04:06;21.2;19.8;
56360;PMS7003;42611;51.132;13.588;2024-02-15T17:09:02;21.3;20.4;
56360;PMS7003;42611;51.132;13.588;2024-02-15T17:14:06;23.5;22.5;
56360;PMS7003;42611;51.132;13.588;2024-02-15T17:19:09;25.1;23.9;
56360;PMS7003;42611;51.132;13.588;2024-02-15T17:24:01;26.2;24.9;
56360;PMS7003;42611;51.132;13.588;2024-02-15T17:29:01;28.2;26.7;
56360;PMS7003;42611;51.132;13.588;2024-02-15T17:34:02;31.9;29.2;
56360;PMS7003;42611;51.132;13.588;2024-02-15T17:39:11;32.6;29.7;
56360;PMS7003;42611;51.132;13.588;2024-02-15T17:44:21;32.5;29.7;
56360;PMS7003;42611;51.132;13.588;2024-02-15T17:49:01;32.1;29.4;
56360;PMS7003;42611;51.132;13.588;2024-02-15T17:54:02;32.2;29.4;
56360;PMS7003;42611;51.132;13.588;2024-02-15T17:59:01;28.9;27.4;
56360;PMS7003;42611;51.132;13.588;2024-02-15T18:04:06;27.6;26.5;
56360;PMS7003;42611;51.132;13.588;2024-02-15T18:09:01;26.0;25.0;
56360;PMS7003;42611;51.132;13.588;2024-02-15T18:14:01;26.3;25.1;
56360;PMS7003;42611;51.132;13.588;2024-02-15T18:19:11;25.6;24.2;
56360;PMS7003;42611;51.132;13.588;2024-02-15T18:24:01;27.5;25.5;
56360;PMS7003;42611;51.132;13.588;2024-02-15T18:29:01;28.6;26.6;
56360;PMS7003;42611;51.132;13.588;2024-02-15T18:34:07;29.8;27.6;
56360;PMS7003;42611;51.132;13.588;2024-02-15T18:39:01;29.9;27.8;
56360;PMS7003;42611;51.132;13.588;2024-02-15T18:44:01;30.6;28.6;
56360;PMS7003;42611;51.132;13.588;2024-02-15T18:49:03;29.0;27.6;
56360;PMS7003;42611;51.132;13.588;2024-02-15T18:54:01;28.6;27.2;
56360;PMS7003;42611;51.132;13.588;2024-02-15T18:59:01;30.0;28.4;
56360;PMS7003;42611;51.132;13.588;2024-02-15T19:04:01;30.7;28.6;
56360;PMS7003;42611;51.132;13.588;2024-02-15T19:09:06;31.5;29.0;
56360;PMS7003;42611;51.132;13.588;2024-02-15T19:14:01;32.1;29.6;
56360;PMS7003;42611;51.132;13.588;2024-02-15T19:19:11;32.5;29.5;
56360;PMS7003;42611;51.132;13.588;2024-02-15T19:24:01;31.9;29.4;
56360;PMS7003;42611;51.132;13.588;2024-02-15T19:29:02;33.0;29.9;
56360;PMS7003;42611;51.132;13.588;2024-02-15T19:34:07;33.2;30.1;
56360;PMS7003;42611;51.132;13.588;2024-02-15T19:39:06;34.9;30.4;
56360;PMS7003;42611;51.132;13.588;2024-02-15T19:44:01;35.5;30.9;
56360;PMS7003;42611;51.132;13.588;2024-02-15T19:49:09;37.3;31.5;
56360;PMS7003;42611;51.132;13.588;2024-02-15T19:54:01;37.7;31.8;
56360;PMS7003;42611;51.132;13.588;2024-02-15T19:59:01;38.0;32.3;
56360;PMS7003;42611;51.132;13.588;2024-02-15T20:04:16;39.0;33.0;
56360;PMS7003;42611;51.132;13.588;2024-02-15T20:09:01;40.6;33.7;
56360;PMS7003;42611;51.132;13.588;2024-02-15T20:14:01;41.2;33.7;
56360;PMS7003;42611;51.132;13.588;2024-02-15T20:19:06;41.1;33.9;
56360;PMS7003;42611;51.132;13.588;2024-02-15T20:29:06;41.3;34.0;
56360;PMS7003;42611;51.132;13.588;2024-02-15T20:34:02;41.6;34.8;
56360;PMS7003;42611;51.132;13.588;2024-02-15T20:39:01;42.5;36.0;
56360;PMS7003;42611;51.132;13.588;2024-02-15T20:44:11;43.9;36.6;
56360;PMS7003;42611;51.132;13.588;2024-02-15T20:49:02;44.6;37.1;
56360;PMS7003;42611;51.132;13.588;2024-02-15T20:54:01;46.1;38.3;
56360;PMS7003;42611;51.132;13.588;2024-02-15T20:59:04;46.7;38.2;
56360;PMS7003;42611;51.132;13.588;2024-02-15T21:04:01;47.3;38.7;
56360;PMS7003;42611;51.132;13.588;2024-02-15T21:09:01;48.0;39.2;
56360;PMS7003;42611;51.132;13.588;2024-02-15T21:14:01;49.9;40.0;
56360;PMS7003;42611;51.132;13.588;2024-02-15T21:19:06;49.8;39.8;
56360;PMS7003;42611;51.132;13.588;2024-02-15T21:24:11;50.2;40.2;
56360;PMS7003;42611;51.132;13.588;2024-02-15T21:29:02;49.8;40.0;
56360;PMS7003;42611;51.132;13.588;2024-02-15T21:34:02;50.5;40.5;
56360;PMS7003;42611;51.132;13.588;2024-02-15T21:39:01;50.0;40.4;
56360;PMS7003;42611;51.132;13.588;2024-02-15T21:44:01;50.6;40.8;
56360;PMS7003;42611;51.132;13.588;2024-02-15T21:49:02;51.4;41.4;
56360;PMS7003;42611;51.132;13.588;2024-02-15T21:54:16;50.4;40.8;
56360;PMS7003;42611;51.132;13.588;2024-02-15T21:59:01;49.8;40.8;
56360;PMS7003;42611;51.132;13.588;2024-02-15T22:09:01;49.6;41.3;
56360;PMS7003;42611;51.132;13.588;2024-02-15T22:19:11;48.1;40.6;
56360;PMS7003;42611;51.132;13.588;2024-02-15T22:24:02;47.8;40.4;
56360;PMS7003;42611;51.132;13.588;2024-02-15T22:29:01;48.0;40.4;
56360;PMS7003;42611;51.132;13.588;2024-02-15T22:34:02;47.2;39.7;
56360;PMS7003;42611;51.132;13.588;2024-02-15T22:39:26;48.3;40.0;
56360;PMS7003;42611;51.132;13.588;2024-02-15T22:44:01;49.4;40.8;
56360;PMS7003;42611;51.132;13.588;2024-02-15T22:49:02;50.3;41.2;
56360;PMS7003;42611;51.132;13.588;2024-02-15T22:54:07;50.5;41.3;
56360;PMS7003;42611;51.132;13.588;2024-02-15T22:59:06;51.2;41.6;
56360;PMS7003;42611;51.132;13.588;2024-02-15T23:04:01;53.0;42.6;
56360;PMS7003;42611;51.132;13.588;2024-02-15T23:09:02;53.6;42.9;
56360;PMS7003;42611;51.132;13.588;2024-02-15T23:14:06;52.8;42.0;
56360;PMS7003;42611;51.132;13.588;2024-02-15T23:19:02;51.6;41.1;
56360;PMS7003;42611;51.132;13.588;2024-02-15T23:24:02;51.1;41.2;
56360;PMS7003;42611;51.132;13.588;2024-02-15T23:29:01;50.2;40.9;
56360;PMS7003;42611;51.132;13.588;2024-02-15T23:34:11;49.5;40.2;
56360;PMS7003;42611;51.132;13.588;2024-02-15T23:44:31;50.0;41.0;
56360;PMS7003;42611;51.132;13.588;2024-02-15T23:49:02;48.6;39.6;
56360;PMS7003;42611;51.132;13.588;2024-02-15T23:54:01;47.2;38.7;
56360;PMS7003;42611;51.132;13.588;2024-02-15T23:59:06;46.0;37.7;
